Time;durP1;ratioP1;P1;durP2;ratioP2;P2;SDS_P1;SDS_P2;PMS_P1;PMS_P2;Temp;Humidity;BMP_temperature;BMP_pressure;BME280_temperature;BME280_humidity;BME280_pressure;Samples;Min_cycle;Max_cycle;Signal;HPM_P1;HPM_P2
2022/06/01 00:00:30;;;;;;;9.52;5.20;;;16.70;1.00;;;;;;4953288;28;20114;-91
2022/06/01 00:02:57;;;;;;;7.53;5.35;;;16.70;1.00;;;;;;4957582;28;20024;-91
2022/06/01 00:05:23;;;;;;;6.03;5.45;;;16.70;1.00;;;;;;4958370;28;20067;-91
2022/06/01 00:07:49;;;;;;;6.03;5.50;;;16.80;1.00;;;;;;4960810;28;20045;-92
2022/06/01 00:10:15;;;;;;;6.65;5.20;;;16.70;1.00;;;;;;4957592;28;20018;-92
2022/06/01 00:12:42;;;;;;;6.20;5.63;;;16.60;1.00;;;;;;4954125;28;20047;-91
2022/06/01 00:15:09;;;;;;;6.82;5.10;;;16.50;1.00;;;;;;4954603;28;20019;-92
2022/06/01 00:17:35;;;;;;;7.40;5.20;;;16.50;1.00;;;;;;4959090;28;20039;-92
2022/06/01 00:20:01;;;;;;;6.13;5.30;;;16.40;1.00;;;;;;4939723;28;20023;-91
2022/06/01 00:22:26;;;;;;;9.88;5.63;;;16.40;1.00;;;;;;4957981;28;20056;-91
2022/06/01 00:24:52;;;;;;;8.68;5.60;;;16.30;1.00;;;;;;4955557;28;20403;-92
2022/06/01 00:27:18;;;;;;;8.05;5.72;;;16.30;1.00;;;;;;4952172;28;20039;-91
2022/06/01 00:29:44;;;;;;;7.25;6.13;;;16.30;1.00;;;;;;4957577;28;20023;-91
2022/06/01 00:32:12;;;;;;;6.55;5.95;;;16.30;1.00;;;;;;4965098;28;20411;-91
2022/06/01 00:34:38;;;;;;;7.00;6.05;;;16.20;1.00;;;;;;4961561;28;20024;-91
2022/06/01 00:37:05;;;;;;;6.47;5.88;;;16.20;1.00;;;;;;4951981;28;20082;-91
2022/06/01 00:39:30;;;;;;;8.95;6.07;;;16.30;1.00;;;;;;4952413;28;20071;-92
2022/06/01 00:42:13;;;;;;;7.90;5.75;;;16.30;1.00;;;;;;4939623;29;20487;-92
2022/06/01 00:44:39;;;;;;;7.78;6.32;;;16.30;1.00;;;;;;4958730;28;20035;-91
2022/06/01 00:47:06;;;;;;;7.18;6.53;;;16.20;1.00;;;;;;4956027;28;20031;-91
2022/06/01 00:49:35;;;;;;;7.47;6.72;;;16.20;1.00;;;;;;4962146;28;20055;-91
2022/06/01 00:52:01;;;;;;;7.75;6.43;;;16.10;1.00;;;;;;4956608;28;20038;-91
2022/06/01 00:54:27;;;;;;;6.53;5.88;;;16.10;1.00;;;;;;4935944;28;20027;-92
2022/06/01 00:56:57;;;;;;;7.18;6.43;;;16.10;1.00;;;;;;4955940;28;20140;-91
2022/06/01 00:59:28;;;;;;;8.25;6.63;;;16.10;1.00;;;;;;4940138;29;20071;-91
2022/06/01 01:01:55;;;;;;;7.47;6.53;;;16.10;1.00;;;;;;4949888;28;20559;-92
2022/06/01 01:04:22;;;;;;;6.95;6.20;;;16.20;1.00;;;;;;4957008;28;20035;-91
2022/06/01 01:06:48;;;;;;;7.78;6.97;;;16.10;1.00;;;;;;4938646;28;20022;-91
2022/06/01 01:09:15;;;;;;;9.25;7.25;;;16.20;1.00;;;;;;4952969;28;20039;-92
2022/06/01 01:11:51;;;;;;;7.57;6.93;;;16.20;1.00;;;;;;4952694;29;20023;-91
2022/06/01 01:14:20;;;;;;;8.27;6.47;;;16.30;1.00;;;;;;4959176;28;20031;-91
2022/06/01 01:16:48;;;;;;;8.52;6.57;;;16.40;1.00;;;;;;4958764;28;20384;-91
2022/06/01 01:19:26;;;;;;;7.32;6.68;;;16.40;1.00;;;;;;4955036;28;20058;-91
2022/06/01 01:22:07;;;;;;;7.63;6.63;;;16.40;1.00;;;;;;4956186;28;20045;-91
2022/06/01 01:25:05;;;;;;;11.90;7.30;;;16.40;1.00;;;;;;4941002;28;20039;-91
2022/06/01 01:27:31;;;;;;;9.88;6.72;;;16.30;1.00;;;;;;4926665;28;20039;-91
2022/06/01 01:29:57;;;;;;;9.50;6.88;;;16.30;1.00;;;;;;4958161;28;20035;-92
2022/06/01 01:32:22;;;;;;;7.18;6.47;;;16.20;1.00;;;;;;4950988;29;20043;-92
2022/06/01 01:34:48;;;;;;;12.75;6.30;;;16.10;1.00;;;;;;4939276;29;20034;-92
2022/06/01 01:37:20;;;;;;;7.45;6.35;;;16.00;1.00;;;;;;4953292;28;20039;-92
2022/06/01 01:39:46;;;;;;;7.50;6.45;;;15.90;1.00;;;;;;4966864;28;20025;-91
2022/06/01 01:42:11;;;;;;;7.72;6.93;;;16.00;1.00;;;;;;4955665;28;20122;-91
2022/06/01 01:44:55;;;;;;;9.45;7.20;;;15.90;1.00;;;;;;4956512;29;20034;-91
2022/06/01 01:47:21;;;;;;;9.85;7.28;;;15.90;1.00;;;;;;4958842;28;20054;-91
2022/06/01 01:49:47;;;;;;;8.50;7.45;;;15.70;1.00;;;;;;4959734;28;20031;-91
2022/06/01 01:52:16;;;;;;;10.68;7.95;;;15.70;1.00;;;;;;4962138;28;20046;-91
2022/06/01 01:55:03;;;;;;;9.65;7.45;;;15.70;1.00;;;;;;4939869;28;20035;-91
2022/06/01 01:58:02;;;;;;;9.27;8.23;;;15.60;1.00;;;;;;4939162;29;20059;-91
2022/06/01 02:00:34;;;;;;;9.30;8.35;;;15.50;1.00;;;;;;4941495;28;20039;-92
2022/06/01 02:03:26;;;;;;;11.20;8.52;;;15.50;1.00;;;;;;4957643;28;20042;-91
2022/06/01 02:06:17;;;;;;;11.95;8.55;;;15.40;1.00;;;;;;4969046;28;20571;-92
2022/06/01 02:09:05;;;;;;;9.40;8.50;;;15.40;1.00;;;;;;4961445;28;20031;-91
2022/06/01 02:14:38;;;;;;;9.45;8.55;;;15.30;1.00;;;;;;4960126;28;20049;-91
2022/06/01 02:17:07;;;;;;;10.05;8.65;;;15.30;1.00;;;;;;4941771;29;20042;-91
2022/06/01 02:19:49;;;;;;;10.85;9.07;;;15.30;1.00;;;;;;4941966;29;20035;-91
2022/06/01 02:22:16;;;;;;;10.52;9.10;;;15.20;1.00;;;;;;4956921;28;20043;-91
2022/06/01 02:24:44;;;;;;;11.45;8.90;;;15.20;1.00;;;;;;4957641;28;20035;-91
2022/06/01 02:27:11;;;;;;;10.40;8.85;;;15.50;1.00;;;;;;4939467;28;20045;-91
2022/06/01 02:30:01;;;;;;;9.70;8.70;;;15.50;1.00;;;;;;4960921;28;20031;-92
2022/06/01 02:32:28;;;;;;;11.48;9.45;;;15.20;1.00;;;;;;4960230;28;20039;-91
2022/06/01 02:34:56;;;;;;;9.98;8.98;;;15.10;1.00;;;;;;4959148;28;20043;-92
2022/06/01 02:37:24;;;;;;;11.95;10.43;;;15.20;1.00;;;;;;4956675;28;20027;-91
2022/06/01 02:39:54;;;;;;;12.38;10.43;;;15.10;1.00;;;;;;4947084;28;20054;-91
2022/06/01 02:42:26;;;;;;;11.38;10.05;;;15.10;1.00;;;;;;4920964;29;20032;-91
2022/06/01 02:44:59;;;;;;;11.80;10.63;;;15.10;1.00;;;;;;4955021;28;20042;-91
2022/06/01 02:47:26;;;;;;;11.38;10.38;;;15.10;1.00;;;;;;4959764;28;20353;-91
2022/06/01 02:49:52;;;;;;;11.82;10.73;;;15.10;1.00;;;;;;4957005;28;20391;-91
2022/06/01 02:52:18;;;;;;;12.60;11.30;;;15.00;1.00;;;;;;4957742;28;20404;-91
2022/06/01 02:54:44;;;;;;;14.80;11.65;;;15.30;1.00;;;;;;4957546;28;20046;-91
2022/06/01 02:57:10;;;;;;;12.93;11.73;;;15.10;1.00;;;;;;4938561;29;20027;-92
2022/06/01 02:59:36;;;;;;;16.95;12.25;;;15.00;1.00;;;;;;4965894;28;20035;-91
2022/06/01 03:02:03;;;;;;;14.25;12.30;;;14.90;1.00;;;;;;4960353;28;20031;-91
2022/06/01 03:04:29;;;;;;;14.88;13.32;;;15.00;1.00;;;;;;4938223;29;20019;-92
2022/06/01 03:06:55;;;;;;;13.80;12.23;;;15.00;1.00;;;;;;4958385;28;20027;-91
2022/06/01 03:09:21;;;;;;;19.88;12.68;;;14.90;1.00;;;;;;4954442;28;20027;-91
2022/06/01 03:11:47;;;;;;;14.93;13.15;;;14.90;1.00;;;;;;4960297;28;20035;-91
2022/06/01 03:14:12;;;;;;;17.05;13.98;;;15.00;1.00;;;;;;4955483;28;20042;-91
2022/06/01 03:16:38;;;;;;;15.60;13.93;;;15.00;1.00;;;;;;4961639;28;20046;-91
2022/06/01 03:19:05;;;;;;;15.68;13.88;;;14.90;1.00;;;;;;4940963;28;20057;-92
2022/06/01 03:21:30;;;;;;;15.10;13.52;;;14.90;1.00;;;;;;4943832;28;20070;-91
2022/06/01 03:23:56;;;;;;;15.45;13.98;;;14.90;1.00;;;;;;4958479;28;20023;-92
2022/06/01 03:26:22;;;;;;;16.65;14.82;;;15.10;1.00;;;;;;4953354;29;20034;-91
2022/06/01 03:28:48;;;;;;;15.95;14.23;;;15.00;1.00;;;;;;4957626;28;20030;-91
2022/06/01 03:31:14;;;;;;;15.00;13.55;;;15.10;1.00;;;;;;4958032;28;20038;-91
2022/06/01 03:33:40;;;;;;;14.90;13.40;;;14.80;1.00;;;;;;4956053;28;20039;-93
2022/06/01 03:36:06;;;;;;;16.48;14.77;;;14.70;1.00;;;;;;4962572;28;20392;-92
2022/06/01 03:38:32;;;;;;;15.02;13.45;;;14.70;1.00;;;;;;4959887;28;20551;-91
2022/06/01 03:40:58;;;;;;;15.13;13.63;;;14.70;1.00;;;;;;4955801;28;20205;-91
2022/06/01 03:43:24;;;;;;;16.98;13.25;;;14.70;1.00;;;;;;4958239;28;20038;-91
2022/06/01 03:45:56;;;;;;;14.05;12.70;;;14.70;1.00;;;;;;4957104;28;20077;-92
2022/06/01 03:48:28;;;;;;;14.68;12.27;;;14.70;1.00;;;;;;4938559;29;20501;-91
2022/06/01 03:50:55;;;;;;;13.60;12.00;;;14.90;1.00;;;;;;4964921;28;20074;-92
2022/06/01 03:53:23;;;;;;;14.55;12.00;;;14.70;1.00;;;;;;4956828;28;20126;-91
2022/06/01 03:55:48;;;;;;;14.77;11.77;;;14.60;1.00;;;;;;4956164;28;20023;-92
2022/06/01 03:58:16;;;;;;;14.57;11.80;;;14.60;1.00;;;;;;4955980;28;20034;-91
2022/06/01 04:00:42;;;;;;;12.68;11.52;;;14.90;1.00;;;;;;4955991;28;20031;-91
2022/06/01 04:03:09;;;;;;;17.02;11.70;;;14.60;1.00;;;;;;4967281;28;20058;-92
2022/06/01 04:05:35;;;;;;;13.65;11.77;;;14.60;1.00;;;;;;4959426;28;20032;-92
2022/06/01 04:08:02;;;;;;;16.15;12.05;;;14.60;1.00;;;;;;4957374;28;20398;-91
2022/06/01 04:10:27;;;;;;;16.48;11.35;;;14.70;1.00;;;;;;4951778;29;20023;-92
2022/06/01 04:12:53;;;;;;;13.38;11.90;;;14.80;1.00;;;;;;4955138;28;20463;-91
2022/06/01 04:15:19;;;;;;;16.42;12.75;;;15.00;1.00;;;;;;4953291;28;20036;-91
2022/06/01 04:17:44;;;;;;;14.77;13.27;;;15.10;1.00;;;;;;4969630;28;20030;-91
2022/06/01 04:20:11;;;;;;;15.18;13.27;;;15.20;1.00;;;;;;4955304;28;20027;-91
2022/06/01 04:22:42;;;;;;;17.80;14.32;;;15.30;1.00;;;;;;4956899;28;20047;-92
2022/06/01 04:25:10;;;;;;;23.27;16.55;;;15.30;1.00;;;;;;4957043;28;20066;-91
2022/06/01 04:27:38;;;;;;;21.02;16.33;;;15.40;1.00;;;;;;4937221;28;20023;-92
2022/06/01 04:30:05;;;;;;;19.55;15.68;;;15.40;1.00;;;;;;4955911;28;20428;-91
2022/06/01 04:32:32;;;;;;;19.58;16.35;;;15.40;1.00;;;;;;4958361;28;20045;-91
2022/06/01 04:34:58;;;;;;;24.65;16.52;;;15.40;1.00;;;;;;4959658;28;20046;-91
2022/06/01 04:37:24;;;;;;;22.23;17.38;;;15.40;1.00;;;;;;4956950;28;20038;-92
2022/06/01 04:39:50;;;;;;;28.02;17.95;;;15.40;1.00;;;;;;4938716;28;20030;-91
2022/06/01 04:42:16;;;;;;;23.70;18.65;;;15.40;1.00;;;;;;4953291;28;20488;-91
2022/06/01 04:44:42;;;;;;;26.67;19.65;;;15.40;1.00;;;;;;4958716;28;20382;-92
2022/06/01 04:47:10;;;;;;;26.42;19.58;;;15.40;1.00;;;;;;4939474;28;20028;-92
2022/06/01 04:49:36;;;;;;;23.80;19.52;;;15.30;1.00;;;;;;4958395;28;20081;-92
2022/06/01 04:52:02;;;;;;;25.08;19.70;;;15.30;1.00;;;;;;4966408;28;20049;-92
2022/06/01 04:54:27;;;;;;;24.10;19.63;;;15.30;1.00;;;;;;4952750;28;20175;-92
2022/06/01 04:56:53;;;;;;;25.45;20.55;;;15.40;1.00;;;;;;4967734;28;20114;-91
2022/06/01 04:59:19;;;;;;;24.77;20.10;;;15.30;1.00;;;;;;4956826;28;20039;-91
2022/06/01 05:01:45;;;;;;;23.73;20.30;;;15.30;1.00;;;;;;4956631;28;20407;-91
2022/06/01 05:04:11;;;;;;;25.83;19.92;;;15.40;1.00;;;;;;4952625;28;20395;-91
2022/06/01 05:06:36;;;;;;;25.20;20.75;;;15.10;1.00;;;;;;4967516;28;20031;-91
2022/06/01 05:09:03;;;;;;;24.73;19.63;;;15.20;1.00;;;;;;4955368;28;20126;-91
2022/06/01 05:11:28;;;;;;;24.95;20.42;;;15.10;1.00;;;;;;4956177;28;20023;-92
2022/06/01 05:13:54;;;;;;;24.55;20.45;;;15.20;1.00;;;;;;4956583;28;20062;-91
2022/06/01 05:16:21;;;;;;;24.50;19.80;;;15.20;1.00;;;;;;4967665;28;20058;-91
2022/06/01 05:18:47;;;;;;;27.23;20.48;;;15.20;1.00;;;;;;4959541;28;20468;-91
2022/06/01 05:21:12;;;;;;;21.65;18.30;;;15.20;1.00;;;;;;4950845;28;20055;-91
2022/06/01 05:23:39;;;;;;;21.58;19.27;;;15.30;1.00;;;;;;4944867;29;20085;-91
2022/06/01 05:26:05;;;;;;;22.50;18.63;;;15.40;1.00;;;;;;4943031;29;20031;-92
2022/06/01 05:28:32;;;;;;;22.75;17.45;;;15.50;1.00;;;;;;4943462;29;20078;-92
2022/06/01 05:31:07;;;;;;;19.50;16.92;;;15.60;1.00;;;;;;4958623;28;20080;-91
2022/06/01 05:33:34;;;;;;;20.40;16.52;;;15.70;1.00;;;;;;4940107;28;20031;-92
2022/06/01 05:35:59;;;;;;;18.58;16.67;;;15.90;1.00;;;;;;4972203;28;20031;-92
2022/06/01 05:38:25;;;;;;;20.77;15.95;;;16.20;1.00;;;;;;4960632;28;20082;-92
2022/06/01 05:40:51;;;;;;;18.08;15.27;;;16.60;1.00;;;;;;4960065;28;20019;-91
2022/06/01 05:43:17;;;;;;;22.95;14.90;;;16.60;1.00;;;;;;4963233;28;20496;-92
2022/06/01 05:45:44;;;;;;;17.58;14.75;;;16.70;1.00;;;;;;4958327;28;20039;-92
2022/06/01 05:48:11;;;;;;;15.48;13.75;;;17.00;1.00;;;;;;4957971;28;20121;-92
2022/06/01 05:50:38;;;;;;;18.98;13.60;;;17.00;1.00;;;;;;4960109;28;20054;-92
2022/06/01 05:53:04;;;;;;;13.57;12.15;;;17.00;1.00;;;;;;4959800;28;20047;-91
2022/06/01 05:55:30;;;;;;;13.90;12.50;;;17.10;1.00;;;;;;4959753;28;20030;-91
2022/06/01 05:57:56;;;;;;;13.32;11.90;;;17.10;1.00;;;;;;4959761;28;20030;-91
2022/06/01 06:00:22;;;;;;;13.98;12.57;;;17.30;1.00;;;;;;4938312;29;20397;-91
2022/06/01 06:02:47;;;;;;;13.93;12.30;;;17.10;1.00;;;;;;4954766;29;20038;-91
2022/06/01 06:07:59;;;;;;;14.90;12.77;;;16.90;1.00;;;;;;4959289;28;20062;-91
2022/06/01 06:10:26;;;;;;;15.40;13.40;;;16.90;1.00;;;;;;4959463;28;20506;-91
2022/06/01 06:12:53;;;;;;;14.90;12.75;;;17.00;1.00;;;;;;4942009;28;20419;-91
2022/06/01 06:15:19;;;;;;;14.68;12.98;;;17.10;1.00;;;;;;4936852;29;20115;-91
2022/06/01 06:17:44;;;;;;;16.10;12.90;;;17.30;1.00;;;;;;4960579;28;20031;-91
2022/06/01 06:20:11;;;;;;;13.85;12.45;;;17.50;1.00;;;;;;4959358;28;20034;-91
2022/06/01 06:22:36;;;;;;;14.35;12.18;;;17.40;1.00;;;;;;4941524;29;20058;-91
2022/06/01 06:25:03;;;;;;;14.25;11.88;;;17.40;1.00;;;;;;4957940;28;20031;-91
2022/06/01 06:27:28;;;;;;;12.98;11.65;;;17.50;1.00;;;;;;4951734;28;20032;-92
2022/06/01 06:29:54;;;;;;;14.00;11.63;;;17.60;1.00;;;;;;4960252;28;20037;-93
2022/06/01 06:32:20;;;;;;;14.15;11.20;;;17.70;1.00;;;;;;4967775;28;20329;-91
2022/06/01 06:34:46;;;;;;;11.85;10.65;;;17.90;1.00;;;;;;4963288;28;20042;-92
2022/06/01 06:37:12;;;;;;;11.43;10.15;;;18.30;1.00;;;;;;4941293;28;20089;-92
2022/06/01 06:39:38;;;;;;;11.18;10.18;;;18.60;1.00;;;;;;4956714;28;20039;-91
2022/06/01 06:42:04;;;;;;;11.13;10.02;;;19.00;1.00;;;;;;4957729;28;20034;-91
2022/06/01 06:44:29;;;;;;;11.50;9.50;;;19.00;1.00;;;;;;4960035;28;20038;-91
2022/06/01 06:46:55;;;;;;;11.38;9.35;;;19.00;1.00;;;;;;4955666;28;20032;-92
2022/06/01 06:49:21;;;;;;;10.52;9.52;;;19.20;1.00;;;;;;4958749;28;20468;-91
2022/06/01 06:51:49;;;;;;;10.80;9.57;;;19.50;1.00;;;;;;4955979;28;20038;-91
2022/06/01 06:54:15;;;;;;;11.45;8.65;;;19.50;1.00;;;;;;4955368;28;20036;-91
2022/06/01 06:56:42;;;;;;;10.10;8.68;;;19.50;1.00;;;;;;4960515;28;20031;-91
2022/06/01 06:59:08;;;;;;;9.57;8.60;;;19.60;1.00;;;;;;4958592;28;20023;-92
2022/06/01 07:01:33;;;;;;;9.90;8.90;;;19.80;1.00;;;;;;4959450;28;20039;-91
2022/06/01 07:03:59;;;;;;;10.07;8.20;;;19.60;1.00;;;;;;4958580;28;20019;-91
2022/06/01 07:06:24;;;;;;;8.93;8.13;;;19.90;1.00;;;;;;4952849;28;20166;-91
2022/06/01 07:08:53;;;;;;;8.82;7.93;;;19.90;1.00;;;;;;4960104;28;20027;-91
2022/06/01 07:11:22;;;;;;;8.70;7.65;;;20.10;1.00;;;;;;4965695;28;20034;-91
2022/06/01 07:13:48;;;;;;;13.20;8.07;;;20.40;1.00;;;;;;4962282;28;20047;-91
2022/06/01 07:16:17;;;;;;;8.85;7.50;;;20.90;1.00;;;;;;4958238;28;20034;-91
2022/06/01 07:18:46;;;;;;;9.93;7.38;;;21.20;1.00;;;;;;4939368;28;20114;-91
2022/06/01 07:21:14;;;;;;;7.60;6.90;;;21.10;1.00;;;;;;4957834;28;20101;-91
2022/06/01 07:23:40;;;;;;;8.90;7.15;;;21.10;1.00;;;;;;4960005;28;20039;-90
2022/06/01 07:26:10;;;;;;;7.60;6.18;;;21.10;1.00;;;;;;4940902;29;20335;-91
2022/06/01 07:28:36;;;;;;;11.80;7.55;;;21.10;1.00;;;;;;4956351;28;20090;-91
2022/06/01 07:31:04;;;;;;;9.35;8.00;;;21.40;1.00;;;;;;4957932;28;20487;-92
2022/06/01 07:33:30;;;;;;;7.85;7.13;;;21.70;1.00;;;;;;4954413;28;20047;-91
2022/06/01 07:35:58;;;;;;;8.25;6.93;;;21.80;1.00;;;;;;4958153;28;20024;-91
2022/06/01 07:44:05;;;;;;;9.73;8.48;;;21.90;1.00;;;;;;4958088;28;20435;-91
2022/06/01 07:46:34;;;;;;;12.63;9.10;;;21.70;1.00;;;;;;4956261;28;20091;-90
2022/06/01 07:49:00;;;;;;;10.07;9.07;;;21.70;1.00;;;;;;4956446;28;20047;-91
2022/06/01 07:51:25;;;;;;;10.18;9.27;;;21.80;99.90;;;;;;4953689;28;20059;-91
2022/06/01 07:53:51;;;;;;;10.80;9.63;;;22.00;99.90;;;;;;4941955;28;20035;-91
2022/06/01 07:56:16;;;;;;;10.15;8.88;;;22.10;99.90;;;;;;4957463;28;20082;-91
2022/06/01 07:58:42;;;;;;;10.55;9.20;;;22.10;1.00;;;;;;4957409;28;20038;-91
2022/06/01 08:01:09;;;;;;;10.85;9.30;;;22.10;99.90;;;;;;4957455;28;20026;-91
2022/06/01 08:03:35;;;;;;;9.38;8.40;;;22.00;99.90;;;;;;4957745;28;20043;-91
2022/06/01 08:06:01;;;;;;;9.73;8.80;;;21.80;99.90;;;;;;4956955;28;20034;-92
2022/06/01 08:08:27;;;;;;;9.65;8.68;;;21.70;99.90;;;;;;4958523;28;20027;-91
2022/06/01 08:10:52;;;;;;;10.55;9.60;;;21.40;1.00;;;;;;4959932;28;20023;-91
2022/06/01 08:13:19;;;;;;;11.98;9.13;;;21.20;99.90;;;;;;4965063;28;20039;-91
2022/06/01 08:15:49;;;;;;;10.45;9.32;;;21.00;1.00;;;;;;4952553;29;20516;-92
2022/06/01 08:18:20;;;;;;;10.30;9.13;;;20.80;1.00;;;;;;4967240;28;20074;-91
2022/06/01 08:20:46;;;;;;;15.60;10.63;;;20.80;1.00;;;;;;4958803;28;20160;-91
2022/06/01 08:23:12;;;;;;;10.15;9.13;;;20.60;1.00;;;;;;4957021;28;20039;-91
2022/06/01 08:25:40;;;;;;;11.30;10.13;;;20.50;1.00;;;;;;4955722;28;20507;-91
2022/06/01 08:28:07;;;;;;;10.00;8.82;;;20.50;1.00;;;;;;4955588;28;20550;-91
2022/06/01 08:30:34;;;;;;;11.73;10.55;;;20.70;1.00;;;;;;4951523;28;20027;-91
2022/06/01 08:33:00;;;;;;;11.82;10.80;;;20.70;1.00;;;;;;4955589;28;20031;-91
2022/06/01 08:35:32;;;;;;;10.30;8.32;;;20.80;1.00;;;;;;4958008;28;20031;-91
2022/06/01 08:37:59;;;;;;;10.15;9.15;;;20.80;1.00;;;;;;4956865;28;20106;-92
2022/06/01 08:40:42;;;;;;;10.32;9.32;;;20.90;1.00;;;;;;4956733;28;20523;-91
2022/06/01 08:43:13;;;;;;;9.73;7.68;;;21.20;1.00;;;;;;4962852;28;20019;-91
2022/06/01 08:45:44;;;;;;;8.93;8.13;;;21.40;1.00;;;;;;4954629;28;20507;-91
2022/06/01 08:48:19;;;;;;;11.82;8.90;;;21.30;1.00;;;;;;4936527;29;20122;-92
2022/06/01 08:50:46;;;;;;;11.65;9.13;;;21.30;1.00;;;;;;4952517;28;20031;-91
2022/06/01 08:53:11;;;;;;;9.80;8.82;;;21.50;1.00;;;;;;4961432;28;20070;-91
2022/06/01 08:56:09;;;;;;;9.45;8.55;;;21.80;1.00;;;;;;4942489;29;20063;-91
2022/06/01 08:58:54;;;;;;;11.43;8.65;;;22.10;1.00;;;;;;4956480;28;20027;-91
2022/06/01 09:01:45;;;;;;;8.63;7.82;;;22.80;1.00;;;;;;4956212;28;20035;-91
2022/06/01 09:04:19;;;;;;;9.90;7.43;;;23.60;1.00;;;;;;4873514;29;20044;-91
2022/06/01 09:06:54;;;;;;;10.38;7.20;;;23.70;1.00;;;;;;4863930;29;20057;-91
2022/06/01 09:09:44;;;;;;;10.15;6.88;;;24.60;99.90;;;;;;4860729;29;20049;-90
2022/06/01 09:12:10;;;;;;;7.95;7.13;;;24.80;99.90;;;;;;4874342;29;20302;-91
2022/06/01 09:14:39;;;;;;;9.38;7.30;;;24.00;99.90;;;;;;4875298;29;20673;-91
2022/06/01 09:17:05;;;;;;;7.03;6.32;;;23.70;99.90;;;;;;4875064;29;20542;-91
2022/06/01 09:22:39;;;;;;;8.18;6.38;;;23.90;99.90;;;;;;4875794;29;20064;-91
2022/06/01 09:25:06;;;;;;;8.65;6.68;;;24.10;99.90;;;;;;4874823;29;20035;-90
2022/06/01 09:27:45;;;;;;;7.32;6.40;;;23.60;99.90;;;;;;4875583;29;20530;-91
2022/06/01 09:30:22;;;;;;;8.18;6.55;;;23.50;99.90;;;;;;4875539;29;20112;-91
2022/06/01 09:33:01;;;;;;;9.57;7.45;;;23.50;99.90;;;;;;4875012;29;20510;-91
2022/06/01 09:35:29;;;;;;;8.65;7.78;;;23.40;99.90;;;;;;4875511;29;20510;-91
2022/06/01 09:37:55;;;;;;;10.68;8.45;;;23.20;99.90;;;;;;4875543;29;20030;-91
2022/06/01 09:40:29;;;;;;;10.00;8.30;;;23.10;99.90;;;;;;4885662;29;20087;-91
2022/06/01 09:43:00;;;;;;;9.65;8.70;;;23.30;99.90;;;;;;4945792;28;20093;-91
2022/06/01 09:45:44;;;;;;;10.43;9.43;;;23.30;99.90;;;;;;4935871;28;20024;-91
2022/06/01 09:48:24;;;;;;;10.48;9.30;;;23.50;99.90;;;;;;4936089;29;20514;-91
2022/06/01 09:51:08;;;;;;;10.55;9.50;;;23.60;99.90;;;;;;4965373;28;20030;-91
2022/06/01 09:53:53;;;;;;;9.52;8.18;;;23.60;99.90;;;;;;4948947;28;20543;-91
2022/06/01 09:56:30;;;;;;;8.95;8.07;;;23.40;99.90;;;;;;4956363;28;20031;-91
2022/06/01 10:07:30;;;;;;;16.25;9.45;;;22.60;99.90;;;;;;4959580;28;20275;-91
2022/06/01 10:10:04;;;;;;;9.80;8.80;;;22.50;99.90;;;;;;4956251;28;20039;-91
2022/06/01 10:12:40;;;;;;;10.75;9.30;;;22.50;99.90;;;;;;4955953;28;20049;-91
2022/06/01 10:15:17;;;;;;;12.02;9.10;;;22.30;1.00;;;;;;4956979;28;20059;-91
2022/06/01 10:17:48;;;;;;;11.30;9.70;;;22.20;99.90;;;;;;4960682;28;20416;-91
2022/06/01 10:20:28;;;;;;;11.02;9.32;;;22.00;1.00;;;;;;4957859;28;20049;-92
2022/06/01 10:23:15;;;;;;;13.20;10.80;;;21.70;1.00;;;;;;4955037;28;20140;-93
2022/06/01 10:25:51;;;;;;;16.15;10.70;;;21.50;1.00;;;;;;4958018;28;20044;-93
2022/06/01 10:28:40;;;;;;;11.13;10.02;;;21.30;1.00;;;;;;4959221;28;20023;-93
2022/06/01 10:31:22;;;;;;;17.23;11.43;;;21.20;1.00;;;;;;4957778;28;20515;-93
2022/06/01 10:33:54;;;;;;;16.27;11.93;;;20.90;1.00;;;;;;4958449;28;20039;-93
2022/06/01 10:36:34;;;;;;;15.27;11.23;;;20.80;1.00;;;;;;4955205;28;20404;-93
2022/06/01 10:39:25;;;;;;;14.63;11.63;;;20.80;1.00;;;;;;4963545;28;20038;-93
2022/06/01 10:42:06;;;;;;;17.55;12.23;;;20.70;1.00;;;;;;4951160;28;20033;-93
2022/06/01 10:44:52;;;;;;;13.98;11.55;;;20.80;1.00;;;;;;4969300;28;20086;-93
2022/06/01 10:47:21;;;;;;;17.35;12.00;;;20.80;1.00;;;;;;4957858;28;20034;-92
2022/06/01 10:50:05;;;;;;;15.15;11.73;;;21.10;1.00;;;;;;4942460;29;20067;-92
2022/06/01 10:52:41;;;;;;;13.52;10.05;;;21.70;1.00;;;;;;4941520;29;20031;-92
2022/06/01 10:55:18;;;;;;;11.85;10.27;;;22.00;1.00;;;;;;4941539;28;20022;-92
2022/06/01 10:57:47;;;;;;;12.73;10.40;;;22.20;1.00;;;;;;4956860;28;20054;-92
2022/06/01 11:00:19;;;;;;;14.70;11.00;;;21.90;1.00;;;;;;4967439;28;20039;-91
2022/06/01 11:03:06;;;;;;;12.93;10.75;;;21.70;1.00;;;;;;4960153;28;20054;-91
2022/06/01 11:05:44;;;;;;;10.98;9.25;;;21.70;1.00;;;;;;4960353;28;20028;-91
2022/06/01 11:08:37;;;;;;;11.68;9.32;;;21.90;1.00;;;;;;4958473;28;20083;-91
2022/06/01 11:11:30;;;;;;;9.73;8.55;;;22.30;1.00;;;;;;4956500;28;20106;-91
2022/06/01 11:14:11;;;;;;;12.63;8.82;;;23.00;1.00;;;;;;4940387;28;20527;-91
2022/06/01 11:16:39;;;;;;;9.77;8.73;;;23.00;1.00;;;;;;4941095;29;20054;-91
2022/06/01 11:19:28;;;;;;;8.32;7.43;;;22.80;1.00;;;;;;4955281;28;20401;-91
2022/06/01 11:21:56;;;;;;;8.55;7.65;;;22.70;1.00;;;;;;4951388;28;20042;-91
2022/06/01 11:24:45;;;;;;;10.27;7.97;;;22.60;1.00;;;;;;4963544;28;20032;-91
2022/06/01 11:27:45;;;;;;;10.73;7.68;;;22.80;1.00;;;;;;4967863;28;20051;-91
2022/06/01 11:30:54;;;;;;;8.55;7.20;;;22.70;1.00;;;;;;4968114;28;20038;-91
2022/06/01 11:33:55;;;;;;;9.63;7.07;;;22.50;1.00;;;;;;4878847;29;20067;-91
2022/06/01 11:36:39;;;;;;;8.85;6.40;;;22.40;1.00;;;;;;4858626;29;20033;-91
2022/06/01 11:39:11;;;;;;;8.63;6.78;;;22.50;1.00;;;;;;4856867;29;20036;-91
2022/06/01 11:41:41;;;;;;;7.95;6.47;;;22.30;1.00;;;;;;4857461;29;20049;-91
2022/06/01 11:44:14;;;;;;;8.75;7.00;;;22.60;1.00;;;;;;4858367;29;20550;-91
2022/06/01 11:46:41;;;;;;;9.05;7.32;;;23.10;1.00;;;;;;4858522;29;20407;-91
2022/06/01 11:49:33;;;;;;;10.70;7.40;;;23.60;1.00;;;;;;4843067;29;20029;-91
2022/06/01 11:52:16;;;;;;;6.35;5.55;;;24.50;99.90;;;;;;4837892;29;20030;-91
2022/06/01 11:54:42;;;;;;;8.68;6.85;;;24.80;99.90;;;;;;4858365;29;20110;-91
2022/06/01 11:57:18;;;;;;;10.10;6.40;;;25.10;99.90;;;;;;4858165;29;20068;-91
2022/06/01 11:59:54;;;;;;;6.50;5.90;;;26.50;99.90;;;;;;4857434;29;20410;-91
2022/06/01 12:02:40;;;;;;;6.25;4.90;;;27.80;99.90;;;;;;4858181;29;20041;-91
2022/06/01 12:05:12;;;;;;;5.63;4.88;;;27.40;99.90;;;;;;4858160;29;20159;-91
2022/06/01 12:07:45;;;;;;;6.35;4.20;;;28.50;99.90;;;;;;4858082;29;20444;-91
2022/06/01 12:10:28;;;;;;;5.22;4.57;;;31.50;99.90;;;;;;4864336;29;20033;-91
2022/06/01 12:13:02;;;;;;;5.78;4.25;;;32.70;99.90;;;;;;4921246;29;20095;-92
2022/06/01 12:15:43;;;;;;;6.28;3.90;;;32.10;99.90;;;;;;4937846;28;20032;-91
2022/06/01 12:18:12;;;;;;;6.72;3.90;;;32.30;99.90;;;;;;4955126;28;20031;-91
2022/06/01 12:20:42;;;;;;;5.82;3.55;;;32.70;99.90;;;;;;4950390;28;20051;-91
2022/06/01 12:28:54;;;;;;;4.82;3.67;;;33.80;99.90;;;;;;4962668;28;20045;-91
2022/06/01 12:31:21;;;;;;;6.90;5.07;;;33.90;99.90;;;;;;4964615;28;20391;-92
2022/06/01 12:34:01;;;;;;;6.40;5.38;;;34.10;99.90;;;;;;4955753;28;20045;-91
2022/06/01 12:36:36;;;;;;;5.93;4.72;;;34.00;99.90;;;;;;4938569;28;20035;-91
2022/06/01 12:39:16;;;;;;;4.78;4.10;;;35.00;99.90;;;;;;4963523;28;20030;-92
2022/06/01 12:41:47;;;;;;;5.90;3.42;;;34.70;99.90;;;;;;4957810;28;20030;-91
2022/06/01 12:44:15;;;;;;;6.13;3.30;;;34.70;99.90;;;;;;4956656;28;20086;-91
2022/06/01 12:46:51;;;;;;;5.97;3.72;;;35.80;99.90;;;;;;4939396;29;20062;-91
2022/06/01 12:49:38;;;;;;;6.05;3.50;;;36.70;99.90;;;;;;4956050;28;20043;-91
2022/06/01 12:52:08;;;;;;;3.95;3.22;;;36.30;99.90;;;;;;4966384;28;20311;-91
2022/06/01 12:54:40;;;;;;;6.95;3.85;;;35.80;99.90;;;;;;4953514;28;20038;-92
2022/06/01 12:57:14;;;;;;;8.02;3.85;;;35.60;99.90;;;;;;4938223;29;20051;-92
2022/06/01 12:59:42;;;;;;;4.95;3.95;;;35.30;99.90;;;;;;4965328;28;20027;-91
2022/06/01 13:02:11;;;;;;;5.43;3.35;;;35.40;99.90;;;;;;4956583;28;20058;-91
2022/06/01 13:04:38;;;;;;;7.22;4.10;;;36.50;99.90;;;;;;4956690;28;20111;-92
2022/06/01 13:07:06;;;;;;;6.63;3.92;;;36.70;99.90;;;;;;4956391;28;20023;-91
2022/06/01 13:09:34;;;;;;;6.40;3.60;;;36.90;99.90;;;;;;4950718;28;20031;-92
2022/06/01 13:12:06;;;;;;;6.47;3.63;;;36.00;99.90;;;;;;4944191;28;20035;-91
2022/06/01 13:14:35;;;;;;;7.78;3.50;;;36.40;99.90;;;;;;4958077;28;20559;-92
2022/06/01 13:17:11;;;;;;;4.78;3.60;;;35.60;99.90;;;;;;4939206;29;20046;-92
2022/06/01 13:19:38;;;;;;;6.07;3.20;;;36.60;99.90;;;;;;4939740;28;20032;-91
2022/06/01 13:22:19;;;;;;;4.13;3.15;;;37.30;99.90;;;;;;4965796;28;20047;-91
2022/06/01 13:24:54;;;;;;;4.47;3.55;;;37.30;99.90;;;;;;4954985;28;20399;-91
2022/06/01 13:27:20;;;;;;;4.78;3.67;;;36.70;99.90;;;;;;4952306;28;20075;-91
2022/06/01 13:29:48;;;;;;;4.72;3.60;;;37.20;99.90;;;;;;4956614;28;20110;-91
2022/06/01 13:32:17;;;;;;;4.25;3.70;;;36.30;99.90;;;;;;4949619;29;20411;-92